Time;durP1;ratioP1;P1;durP2;ratioP2;P2;SDS_P1;SDS_P2;PMS_P1;PMS_P2;Temp;Humidity;BMP_temperature;BMP_pressure;BME280_temperature;BME280_humidity;BME280_pressure;Samples;Min_cycle;Max_cycle;Signal;HPM_P1;HPM_P2
2023/05/14 00:01:12;;;;;;;40.60;21.15;;;;;;;11.96;84.19;102288.81;6106270;19;20064;-73
2023/05/14 00:03:18;;;;;;;38.33;19.10;;;;;;;11.85;84.19;102287.25;6104606;19;20077;-73
2023/05/14 00:05:23;;;;;;;37.22;19.85;;;;;;;11.83;84.55;102286.41;6103652;19;20586;-73
2023/05/14 00:07:31;;;;;;;35.75;18.35;;;;;;;11.81;84.41;102288.22;6099904;19;20012;-73
2023/05/14 00:09:36;;;;;;;34.80;18.30;;;;;;;11.88;83.78;102286.34;6104234;19;20539;-73
2023/05/14 00:11:41;;;;;;;34.30;19.95;;;;;;;11.79;83.66;102284.75;6103075;19;20007;-73
2023/05/14 00:13:47;;;;;;;37.88;18.63;;;;;;;11.80;83.76;102278.59;6102895;19;20034;-74
2023/05/14 00:15:52;;;;;;;34.45;18.20;;;;;;;11.75;83.81;102279.59;6104184;19;20019;-73
2023/05/14 00:18:02;;;;;;;34.15;17.20;;;;;;;11.76;84.05;102274.28;6104021;19;20479;-72
2023/05/14 00:20:10;;;;;;;36.63;18.08;;;;;;;11.68;84.48;102273.59;6103225;19;20268;-72
2023/05/14 00:22:16;;;;;;;39.15;18.13;;;;;;;11.63;83.87;102267.56;6104262;19;20480;-72
2023/05/14 00:24:22;;;;;;;34.95;17.88;;;;;;;11.60;84.33;102262.38;6103108;19;20002;-72
2023/05/14 00:26:30;;;;;;;35.88;16.98;;;;;;;11.52;84.25;102267.78;6101879;19;20606;-71
2023/05/14 00:28:35;;;;;;;35.28;17.60;;;;;;;11.48;84.37;102265.25;6103996;19;20011;-70
2023/05/14 00:30:41;;;;;;;35.92;18.15;;;;;;;11.46;85.10;102264.44;6103057;19;20014;-70
2023/05/14 00:32:49;;;;;;;35.05;17.40;;;;;;;11.47;84.73;102258.25;6101219;19;20010;-70
2023/05/14 00:34:57;;;;;;;35.00;18.98;;;;;;;11.43;84.81;102260.97;6104891;19;20014;-70
2023/05/14 00:37:02;;;;;;;38.25;18.90;;;;;;;11.38;84.77;102254.06;6103086;19;20006;-71
2023/05/14 00:39:07;;;;;;;33.88;17.27;;;;;;;11.35;84.79;102252.38;6101388;19;20002;-71
2023/05/14 00:41:12;;;;;;;35.15;17.92;;;;;;;11.46;84.93;102253.91;6101339;19;20007;-71
2023/05/14 00:43:18;;;;;;;31.13;16.48;;;;;;;11.38;84.87;102244.41;6103037;19;20011;-71
2023/05/14 00:45:23;;;;;;;34.70;19.33;;;;;;;11.38;84.82;102249.66;6103766;19;20006;-70
2023/05/14 00:47:29;;;;;;;33.35;16.85;;;;;;;11.36;84.85;102254.09;6100920;19;20547;-71
2023/05/14 00:49:34;;;;;;;34.58;17.92;;;;;;;11.32;85.17;102259.44;6102271;19;20111;-70
2023/05/14 00:51:45;;;;;;;32.78;17.85;;;;;;;11.30;85.48;102254.22;6100049;19;20007;-70
2023/05/14 00:53:51;;;;;;;39.35;18.55;;;;;;;11.25;85.84;102253.47;6096760;19;20086;-70
2023/05/14 00:55:59;;;;;;;35.53;19.02;;;;;;;11.23;86.16;102249.13;6099739;19;20013;-70
2023/05/14 00:58:06;;;;;;;39.63;21.05;;;;;;;11.17;86.06;102255.38;6105394;19;20011;-71
2023/05/14 01:00:11;;;;;;;36.88;19.52;;;;;;;11.15;86.33;102249.28;6100836;19;20018;-71
2023/05/14 01:02:18;;;;;;;39.50;19.58;;;;;;;11.10;86.33;102253.75;6100399;19;20027;-71
2023/05/14 01:04:23;;;;;;;43.28;21.35;;;;;;;11.09;86.89;102254.69;6097165;19;20003;-71
2023/05/14 01:06:40;;;;;;;40.83;20.67;;;;;;;11.05;87.03;102247.72;6101962;19;20007;-71
2023/05/14 01:08:58;;;;;;;43.42;21.45;;;;;;;10.95;87.50;102242.66;6102502;19;20423;-71
2023/05/14 01:11:08;;;;;;;43.42;20.58;;;;;;;10.95;87.63;102241.78;6102482;19;20368;-71
2023/05/14 01:13:19;;;;;;;38.78;20.67;;;;;;;10.89;87.90;102249.78;6100083;19;20011;-71
2023/05/14 01:15:28;;;;;;;40.17;21.60;;;;;;;10.86;88.07;102249.84;6100216;19;20064;-70
2023/05/14 01:17:41;;;;;;;48.33;23.85;;;;;;;10.85;88.37;102246.38;6097203;19;20014;-70
2023/05/14 01:19:50;;;;;;;44.08;20.50;;;;;;;10.83;88.09;102244.66;6099665;19;20026;-70
2023/05/14 01:22:01;;;;;;;44.70;20.90;;;;;;;10.80;87.94;102247.34;6099158;19;20014;-70
2023/05/14 01:24:06;;;;;;;39.88;20.33;;;;;;;10.77;88.46;102241.25;6100362;19;20467;-71
2023/05/14 01:26:11;;;;;;;42.10;21.80;;;;;;;10.74;88.30;102250.94;6098888;19;20622;-70
2023/05/14 01:28:22;;;;;;;43.83;20.77;;;;;;;10.66;88.87;102255.47;6095122;19;20022;-71
2023/05/14 01:30:33;;;;;;;49.20;22.67;;;;;;;10.59;89.73;102256.50;6095411;19;20011;-72
2023/05/14 01:32:41;;;;;;;45.55;21.98;;;;;;;10.59;89.47;102248.63;6096659;19;20591;-71
2023/05/14 01:34:49;;;;;;;44.05;22.92;;;;;;;10.54;89.74;102248.69;6096758;19;20010;-71
2023/05/14 01:36:55;;;;;;;48.42;22.42;;;;;;;10.53;89.91;102253.09;6098864;19;20002;-72
2023/05/14 01:39:03;;;;;;;43.50;21.13;;;;;;;10.51;90.27;102243.50;6094363;19;20504;-73
2023/05/14 01:41:09;;;;;;;46.15;21.02;;;;;;;10.52;89.54;102240.81;6095633;19;20025;-73
2023/05/14 01:43:14;;;;;;;45.47;21.35;;;;;;;10.53;89.50;102237.31;6096870;19;20027;-73
2023/05/14 01:45:21;;;;;;;43.80;21.35;;;;;;;10.52;89.73;102234.69;6096452;19;20010;-72
2023/05/14 01:47:26;;;;;;;38.28;19.25;;;;;;;10.50;89.31;102233.84;6097979;19;20629;-73
2023/05/14 01:49:31;;;;;;;45.33;21.40;;;;;;;10.50;89.89;102231.22;6086857;19;20006;-71
2023/05/14 01:51:36;;;;;;;42.38;21.10;;;;;;;10.51;89.26;102223.31;6093289;19;20622;-71
2023/05/14 01:53:41;;;;;;;39.72;18.60;;;;;;;10.49;89.50;102230.38;6094817;19;20552;-70
2023/05/14 01:55:49;;;;;;;41.72;20.52;;;;;;;10.44;89.43;102220.81;6098162;19;20638;-69
2023/05/14 01:57:56;;;;;;;42.78;20.85;;;;;;;10.45;89.81;102226.06;6096951;19;20354;-70
2023/05/14 02:00:02;;;;;;;39.88;18.83;;;;;;;10.45;89.48;102215.56;6097833;19;20015;-70
2023/05/14 02:02:08;;;;;;;39.15;18.55;;;;;;;10.47;89.60;102216.38;6099373;19;20073;-72
2023/05/14 02:04:12;;;;;;;43.45;18.98;;;;;;;10.52;89.34;102213.66;6095836;19;20021;-71
2023/05/14 02:06:18;;;;;;;41.13;19.35;;;;;;;10.45;89.40;102214.66;6095693;19;20027;-72
2023/05/14 02:08:23;;;;;;;36.78;19.35;;;;;;;10.43;89.22;102206.81;6097226;19;20537;-72
2023/05/14 02:10:29;;;;;;;44.35;19.80;;;;;;;10.41;89.33;102205.97;6096197;19;20007;-72
2023/05/14 02:12:37;;;;;;;39.80;19.67;;;;;;;10.37;89.77;102206.91;6093360;19;20006;-72
2023/05/14 02:14:42;;;;;;;39.55;19.05;;;;;;;10.34;89.65;102209.59;6095888;19;20043;-70
2023/05/14 02:16:47;;;;;;;47.58;20.55;;;;;;;10.33;90.26;102213.13;6096968;19;20315;-71
2023/05/14 02:18:52;;;;;;;50.00;21.35;;;;;;;10.33;90.11;102214.00;6097015;19;20531;-71
2023/05/14 02:20:58;;;;;;;46.28;21.85;;;;;;;10.35;90.06;102211.34;6097393;19;20452;-70
2023/05/14 02:23:03;;;;;;;41.45;19.85;;;;;;;10.38;90.57;102220.94;6094659;19;20010;-72
2023/05/14 02:25:09;;;;;;;47.13;20.95;;;;;;;10.37;90.53;102219.19;6096250;19;20444;-70
2023/05/14 02:27:18;;;;;;;45.63;21.58;;;;;;;10.40;90.40;102209.50;6096994;19;20086;-71
2023/05/14 02:29:26;;;;;;;46.58;20.95;;;;;;;10.36;90.21;102212.22;6094406;19;20003;-70
2023/05/14 02:31:31;;;;;;;50.22;24.58;;;;;;;10.29;90.92;102214.06;6091277;19;20454;-70
2023/05/14 02:33:37;;;;;;;48.65;22.67;;;;;;;10.30;91.09;102207.94;6097588;19;20776;-71
2023/05/14 02:35:42;;;;;;;49.97;23.33;;;;;;;10.27;91.07;102213.22;6095223;19;20007;-72
2023/05/14 02:37:50;;;;;;;53.08;24.92;;;;;;;10.28;91.16;102205.31;6095087;19;20059;-70
2023/05/14 02:39:55;;;;;;;56.75;22.40;;;;;;;10.29;91.04;102204.44;6096664;19;20020;-71
2023/05/14 02:42:00;;;;;;;56.83;22.83;;;;;;;10.25;91.25;102202.72;6096136;19;20010;-71
2023/05/14 02:44:05;;;;;;;59.03;26.33;;;;;;;10.24;91.30;102205.38;6094664;19;20081;-71
2023/05/14 02:46:12;;;;;;;48.65;22.25;;;;;;;10.24;90.78;102202.75;6097224;19;20010;-70
2023/05/14 02:48:18;;;;;;;52.83;22.58;;;;;;;10.23;91.47;102193.13;6098096;19;20604;-70
2023/05/14 02:50:23;;;;;;;52.60;23.45;;;;;;;10.19;91.21;102199.31;6098896;19;20013;-71
2023/05/14 02:52:29;;;;;;;55.63;22.48;;;;;;;10.17;91.44;102198.50;6094868;19;19999;-72
2023/05/14 02:54:34;;;;;;;54.13;22.95;;;;;;;10.14;91.68;102196.78;6097483;19;20362;-73
2023/05/14 02:56:39;;;;;;;59.70;25.95;;;;;;;10.13;91.56;102199.44;6095623;19;20480;-71
2023/05/14 02:58:44;;;;;;;56.60;25.27;;;;;;;10.13;91.84;102205.56;6095257;19;20015;-70
2023/05/14 03:00:49;;;;;;;53.47;23.60;;;;;;;10.14;91.82;102204.69;6098253;19;20657;-71
2023/05/14 03:02:58;;;;;;;62.67;25.83;;;;;;;10.11;91.95;102202.09;6093691;19;20019;-70
2023/05/14 03:05:03;;;;;;;62.47;26.70;;;;;;;10.11;91.99;102202.97;6095424;19;20007;-71
2023/05/14 03:07:09;;;;;;;55.00;25.48;;;;;;;10.10;92.12;102200.34;6096167;19;20114;-71
2023/05/14 03:09:14;;;;;;;55.65;25.48;;;;;;;10.20;92.00;102193.19;6095832;19;20013;-71
2023/05/14 03:11:19;;;;;;;60.25;24.52;;;;;;;10.15;91.89;102193.25;6095162;19;20439;-71
2023/05/14 03:13:25;;;;;;;53.65;23.77;;;;;;;10.13;92.03;102194.19;6095350;19;20070;-71
2023/05/14 03:15:31;;;;;;;55.25;26.63;;;;;;;10.10;92.38;102200.34;6093885;19;20510;-70
2023/05/14 03:17:38;;;;;;;59.30;25.95;;;;;;;10.05;92.24;102197.78;6095100;19;20495;-71
2023/05/14 03:19:47;;;;;;;57.88;24.83;;;;;;;10.10;91.96;102201.22;6093911;19;20459;-71
2023/05/14 03:21:54;;;;;;;61.30;23.80;;;;;;;10.10;92.00;102192.47;6095677;19;20074;-72
2023/05/14 03:23:59;;;;;;;58.10;24.80;;;;;;;10.08;92.33;102192.53;6095048;19;20106;-71
2023/05/14 03:26:05;;;;;;;62.05;24.83;;;;;;;10.08;92.43;102189.88;6094692;19;20026;-71
2023/05/14 03:28:10;;;;;;;59.58;24.77;;;;;;;10.09;92.24;102186.34;6099109;19;20125;-71
2023/05/14 03:30:15;;;;;;;60.97;26.13;;;;;;;10.11;92.11;102189.84;6098948;19;20013;-71
2023/05/14 03:32:21;;;;;;;59.90;25.20;;;;;;;10.11;91.86;102187.22;6098321;19;20352;-72
2023/05/14 03:34:26;;;;;;;57.95;24.23;;;;;;;10.11;92.07;102184.59;6101393;19;20383;-72
2023/05/14 03:36:35;;;;;;;64.18;24.38;;;;;;;10.13;91.86;102173.16;6102342;19;20464;-72
2023/05/14 03:38:40;;;;;;;57.90;25.67;;;;;;;10.13;92.35;102171.41;6098629;19;20014;-70
2023/05/14 03:40:47;;;;;;;65.65;24.60;;;;;;;10.11;92.42;102176.69;6099775;19;20014;-71
2023/05/14 03:42:52;;;;;;;62.15;25.02;;;;;;;10.12;92.75;102174.94;6098261;19;20488;-72
2023/05/14 03:45:00;;;;;;;61.05;24.67;;;;;;;10.13;92.42;102171.41;6098740;19;20007;-71
2023/05/14 03:47:05;;;;;;;57.70;23.88;;;;;;;10.14;92.58;102181.03;6097507;19;20683;-70
2023/05/14 03:49:10;;;;;;;64.25;26.25;;;;;;;10.08;92.50;102174.13;6100817;19;20022;-70
2023/05/14 03:51:15;;;;;;;56.72;23.13;;;;;;;10.15;92.53;102172.25;6099868;19;20562;-70
2023/05/14 03:53:25;;;;;;;53.47;25.67;;;;;;;10.10;92.55;102172.31;6095357;19;20377;-72
2023/05/14 03:55:30;;;;;;;69.43;26.15;;;;;;;10.12;92.56;102172.31;6098046;19;20014;-71
2023/05/14 03:57:35;;;;;;;60.42;24.85;;;;;;;10.08;92.88;102165.34;6097871;19;20073;-71
2023/05/14 03:59:44;;;;;;;66.28;26.02;;;;;;;10.05;93.34;102179.41;6096989;19;20117;-71
2023/05/14 04:01:49;;;;;;;57.30;24.35;;;;;;;10.05;93.22;102174.16;6097252;19;20057;-73
2023/05/14 04:03:54;;;;;;;64.75;25.90;;;;;;;10.05;93.25;102176.78;6098130;19;20437;-73
2023/05/14 04:05:59;;;;;;;62.55;25.50;;;;;;;10.04;93.75;102174.19;6098448;19;20134;-73
2023/05/14 04:08:04;;;;;;;62.17;25.88;;;;;;;10.03;93.83;102173.34;6099138;19;20431;-72
2023/05/14 04:10:12;;;;;;;64.10;26.83;;;;;;;10.00;94.01;102176.00;6094565;19;20034;-72
2023/05/14 04:12:18;;;;;;;63.25;26.95;;;;;;;9.99;93.86;102173.41;6099993;19;20515;-72
2023/05/14 04:14:23;;;;;;;61.35;26.83;;;;;;;9.99;94.41;102178.66;6091701;19;20075;-72
2023/05/14 04:16:32;;;;;;;70.03;29.25;;;;;;;10.00;94.47;102175.13;6099720;19;20015;-72
2023/05/14 04:18:37;;;;;;;71.22;28.52;;;;;;;10.03;93.91;102172.44;6099084;19;19999;-72
2023/05/14 04:20:42;;;;;;;62.45;26.83;;;;;;;10.03;94.30;102180.31;6100090;19;20013;-72
2023/05/14 04:22:48;;;;;;;69.97;27.52;;;;;;;10.08;93.84;102182.00;6102297;19;20094;-70
2023/05/14 04:24:53;;;;;;;61.03;25.67;;;;;;;10.08;93.93;102176.75;6098555;19;20497;-70
2023/05/14 04:27:01;;;;;;;67.60;27.27;;;;;;;10.06;94.55;102183.78;6097893;19;20358;-70
2023/05/14 04:29:06;;;;;;;65.72;25.83;;;;;;;10.10;94.26;102181.97;6100016;19;20053;-70
2023/05/14 04:31:11;;;;;;;60.55;26.38;;;;;;;10.16;94.48;102183.63;6095530;19;20322;-70
2023/05/14 04:33:17;;;;;;;61.85;27.30;;;;;;;10.16;94.36;102183.63;6097452;19;20007;-71
2023/05/14 04:35:25;;;;;;;66.40;25.27;;;;;;;10.19;94.37;102178.31;6098772;19;20019;-71
2023/05/14 04:37:29;;;;;;;71.18;27.83;;;;;;;10.21;94.03;102176.53;6093960;19;20002;-70
2023/05/14 04:39:35;;;;;;;59.00;26.05;;;;;;;10.20;94.33;102177.44;6099229;19;20010;-71
2023/05/14 04:41:41;;;;;;;60.80;25.98;;;;;;;10.24;94.11;102182.63;6096601;19;20418;-70
2023/05/14 04:43:51;;;;;;;77.88;31.17;;;;;;;10.25;94.49;102181.72;6094239;19;20348;-73
2023/05/14 04:45:56;;;;;;;65.63;26.83;;;;;;;10.25;94.40;102179.06;6095854;19;20014;-72
2023/05/14 04:48:01;;;;;;;63.95;26.63;;;;;;;10.32;94.34;102172.88;6096714;19;20117;-72
2023/05/14 04:50:08;;;;;;;66.10;26.58;;;;;;;10.33;94.42;102179.84;6097927;19;20086;-72
2023/05/14 04:52:14;;;;;;;63.75;26.10;;;;;;;10.33;94.39;102178.97;6093898;19;20014;-72
2023/05/14 04:54:19;;;;;;;67.60;27.58;;;;;;;10.36;94.62;102173.66;6095615;19;20006;-72
2023/05/14 04:56:24;;;;;;;70.05;26.98;;;;;;;10.36;94.90;102181.53;6096631;19;20012;-72
2023/05/14 04:58:31;;;;;;;65.63;25.77;;;;;;;10.41;94.97;102178.84;6097375;19;20007;-72
2023/05/14 05:00:41;;;;;;;63.47;26.35;;;;;;;10.38;94.95;102174.50;6100419;19;20009;-72
2023/05/14 05:02:47;;;;;;;69.68;26.02;;;;;;;10.45;94.88;102180.50;6095995;19;20101;-72
2023/05/14 05:04:53;;;;;;;69.65;26.13;;;;;;;10.53;94.63;102173.34;6096519;19;20015;-72
2023/05/14 05:06:58;;;;;;;62.20;24.92;;;;;;;10.61;94.31;102174.09;6097718;19;20382;-72
2023/05/14 05:09:03;;;;;;;67.20;25.35;;;;;;;10.64;94.17;102178.41;6097276;19;20006;-71
2023/05/14 05:11:08;;;;;;;67.35;25.35;;;;;;;10.67;94.32;102183.63;6096793;19;20439;-70
2023/05/14 05:13:15;;;;;;;64.38;27.65;;;;;;;10.81;93.60;102191.22;6094761;19;20099;-71
2023/05/14 05:15:21;;;;;;;68.38;25.55;;;;;;;10.88;93.23;102185.81;6095356;19;20263;-72
2023/05/14 05:17:32;;;;;;;58.17;23.45;;;;;;;10.79;93.88;102196.50;6089835;19;20038;-71
2023/05/14 05:19:37;;;;;;;64.07;24.45;;;;;;;10.82;93.53;102203.47;6098003;19;20103;-71
2023/05/14 05:21:48;;;;;;;71.47;26.13;;;;;;;10.93;93.42;102194.47;6093627;19;20465;-71
2023/05/14 05:23:53;;;;;;;69.40;29.27;;;;;;;10.91;93.56;102196.25;6098029;19;20021;-70
2023/05/14 05:25:58;;;;;;;74.20;28.40;;;;;;;10.98;93.61;102190.00;6094265;19;20011;-70
2023/05/14 05:28:03;;;;;;;64.78;24.85;;;;;;;11.04;93.32;102204.78;6096762;19;20025;-70
2023/05/14 05:30:09;;;;;;;73.20;26.65;;;;;;;11.04;93.15;102193.41;6097037;19;22979;-71
2023/05/14 05:32:15;;;;;;;64.93;24.52;;;;;;;11.14;93.00;102197.56;6096564;19;20107;-71
2023/05/14 05:34:23;;;;;;;66.60;24.40;;;;;;;11.04;93.78;102207.41;6097314;19;20030;-70
2023/05/14 05:36:28;;;;;;;67.30;26.05;;;;;;;10.99;93.85;102204.88;6098476;19;19999;-71
2023/05/14 05:38:33;;;;;;;72.95;25.30;;;;;;;10.89;94.47;102211.19;6096575;19;20027;-70
2023/05/14 05:40:39;;;;;;;77.47;28.48;;;;;;;10.94;94.60;102203.22;6098946;19;20006;-70
2023/05/14 05:42:44;;;;;;;76.07;29.30;;;;;;;10.94;94.59;102201.47;6096494;19;20003;-70
2023/05/14 05:44:49;;;;;;;75.85;26.20;;;;;;;10.91;94.28;102203.28;6097403;19;20333;-70
2023/05/14 05:46:55;;;;;;;78.10;29.33;;;;;;;11.02;94.16;102203.94;6098038;19;20050;-70
2023/05/14 05:49:01;;;;;;;76.63;27.50;;;;;;;11.10;94.25;102209.03;6095516;19;20293;-70
2023/05/14 05:51:08;;;;;;;74.53;27.38;;;;;;;11.22;93.67;102203.53;6095711;19;20041;-70
2023/05/14 05:53:15;;;;;;;77.20;28.67;;;;;;;11.05;94.16;102206.50;6090290;19;20014;-69
2023/05/14 05:55:23;;;;;;;76.57;29.27;;;;;;;11.05;93.86;102203.88;6096842;19;20335;-70
2023/05/14 05:57:28;;;;;;;70.07;26.25;;;;;;;11.29;93.49;102201.63;6092717;19;20011;-71
2023/05/14 05:59:33;;;;;;;77.13;28.02;;;;;;;11.27;93.05;102203.41;6097824;19;20558;-70
2023/05/14 06:01:42;;;;;;;75.82;29.00;;;;;;;11.29;92.88;102210.38;6096722;19;20011;-70
2023/05/14 06:03:48;;;;;;;77.43;27.30;;;;;;;11.27;93.02;102211.31;6095802;19;20040;-72
2023/05/14 06:05:53;;;;;;;82.82;30.55;;;;;;;11.23;93.43;102210.50;6095149;19;20684;-72
2023/05/14 06:08:01;;;;;;;82.05;30.60;;;;;;;11.19;93.09;102211.50;6097160;19;20440;-72
2023/05/14 06:10:07;;;;;;;85.05;30.38;;;;;;;11.37;93.13;102218.09;6097237;19;20418;-72
2023/05/14 06:12:12;;;;;;;80.70;29.58;;;;;;;11.43;92.65;102215.38;6093535;19;20003;-74
2023/05/14 06:14:22;;;;;;;78.78;28.27;;;;;;;11.51;92.71;102213.41;6095867;19;20023;-71
2023/05/14 06:16:30;;;;;;;79.72;29.33;;;;;;;11.68;91.85;102225.34;6093799;19;20002;-70
2023/05/14 06:18:35;;;;;;;89.30;32.10;;;;;;;11.64;92.31;102217.50;6093916;19;20010;-70
2023/05/14 06:20:40;;;;;;;90.43;32.58;;;;;;;11.59;92.31;102213.25;6093043;19;20006;-69
2023/05/14 06:22:45;;;;;;;91.38;31.17;;;;;;;11.77;91.69;102220.72;6092128;19;20106;-69
2023/05/14 06:24:53;;;;;;;88.25;32.85;;;;;;;11.86;91.32;102215.25;6094797;19;20003;-71
2023/05/14 06:26:58;;;;;;;71.07;28.58;;;;;;;11.96;90.30;102218.53;6096823;19;20481;-71
2023/05/14 06:29:03;;;;;;;81.03;28.65;;;;;;;11.94;90.53;102217.72;6094327;19;20539;-71
2023/05/14 06:31:08;;;;;;;78.50;31.15;;;;;;;11.76;90.54;102213.72;6094115;19;20499;-71
2023/05/14 06:33:14;;;;;;;87.22;30.75;;;;;;;11.92;90.50;102219.50;6094457;19;20112;-71
2023/05/14 06:35:20;;;;;;;71.72;29.25;;;;;;;12.12;90.36;102228.72;6092897;19;20035;-71
2023/05/14 06:37:25;;;;;;;85.18;31.45;;;;;;;12.21;89.66;102231.97;6094890;19;20006;-70
2023/05/14 06:39:30;;;;;;;69.57;29.00;;;;;;;12.21;89.88;102220.56;6089454;19;20475;-70
2023/05/14 06:41:37;;;;;;;68.72;29.52;;;;;;;12.33;89.40;102224.69;6093972;19;20024;-70
2023/05/14 06:43:42;;;;;;;68.65;28.45;;;;;;;12.08;89.75;102227.91;6095647;19;20470;-70
2023/05/14 06:45:50;;;;;;;65.97;27.65;;;;;;;11.85;90.51;102229.31;6094675;19;20031;-71
2023/05/14 06:47:55;;;;;;;63.25;27.27;;;;;;;12.18;90.34;102231.19;6093948;19;20010;-70
2023/05/14 06:50:01;;;;;;;69.03;27.73;;;;;;;12.10;89.91;102222.63;6097207;19;20021;-70
2023/05/14 06:52:06;;;;;;;63.88;28.98;;;;;;;12.04;90.09;102232.41;6093618;19;20190;-71
2023/05/14 06:54:11;;;;;;;65.20;25.77;;;;;;;12.15;90.12;102215.47;6092642;19;20039;-70
2023/05/14 06:56:17;;;;;;;63.78;27.08;;;;;;;12.36;89.20;102209.63;6094006;19;20078;-71
2023/05/14 06:58:25;;;;;;;57.33;24.63;;;;;;;12.36;88.57;102214.06;6095592;19;20011;-70
2023/05/14 07:00:30;;;;;;;60.10;24.30;;;;;;;12.56;88.06;102210.88;6095891;19;20035;-70
2023/05/14 07:02:37;;;;;;;55.10;22.50;;;;;;;12.67;87.61;102204.41;6098418;19;19998;-70
2023/05/14 07:04:42;;;;;;;50.47;23.88;;;;;;;12.78;86.52;102211.16;6100010;19;20017;-72
2023/05/14 07:06:48;;;;;;;53.33;25.23;;;;;;;12.89;86.22;102209.94;6100194;19;20007;-73
2023/05/14 07:08:53;;;;;;;51.03;23.10;;;;;;;13.03;86.19;102209.53;6102904;19;20019;-73
2023/05/14 07:10:58;;;;;;;51.65;23.00;;;;;;;13.10;85.67;102203.19;6100308;19;20018;-73
2023/05/14 07:13:03;;;;;;;56.55;24.10;;;;;;;13.43;84.12;102200.50;6100949;19;20058;-73
2023/05/14 07:15:12;;;;;;;51.00;25.48;;;;;;;13.82;83.19;102203.66;6101524;19;20480;-73
2023/05/14 07:17:18;;;;;;;51.08;24.20;;;;;;;14.04;82.08;102198.53;6097560;19;20152;-73
2023/05/14 07:19:23;;;;;;;48.47;23.08;;;;;;;13.97;81.61;102193.50;6102070;19;20331;-73
2023/05/14 07:21:28;;;;;;;49.42;21.77;;;;;;;13.95;81.79;102190.88;6096058;19;20074;-72
2023/05/14 07:23:35;;;;;;;48.08;21.73;;;;;;;13.85;82.26;102200.06;6097924;19;20014;-72
2023/05/14 07:25:40;;;;;;;56.53;24.00;;;;;;;13.39;82.97;102202.34;6098909;19;20074;-72
2023/05/14 07:27:45;;;;;;;47.53;23.52;;;;;;;13.02;84.17;102204.34;6098169;19;20010;-72
2023/05/14 07:29:51;;;;;;;53.63;22.75;;;;;;;13.32;84.24;102198.19;6099370;19;20051;-72
2023/05/14 07:31:58;;;;;;;51.83;23.67;;;;;;;14.49;81.84;102195.22;6099492;19;20011;-72
2023/05/14 07:34:03;;;;;;;48.47;22.65;;;;;;;14.79;78.90;102192.41;6101251;19;20006;-71
2023/05/14 07:36:09;;;;;;;42.05;20.35;;;;;;;14.82;77.93;102199.38;6101625;19;20006;-72
2023/05/14 07:38:14;;;;;;;45.40;20.23;;;;;;;14.90;78.24;102190.25;6103034;19;20134;-74
2023/05/14 07:40:19;;;;;;;47.05;20.70;;;;;;;15.23;77.07;102181.97;6103835;19;20582;-73
2023/05/14 07:42:25;;;;;;;43.55;21.42;;;;;;;15.36;75.81;102192.94;6100379;19;20017;-74
2023/05/14 07:44:40;;;;;;;35.75;18.17;;;;;;;15.05;76.15;102191.47;6102285;19;20945;-71
2023/05/14 07:46:45;;;;;;;39.63;19.13;;;;;;;15.09;76.84;102186.94;6103454;19;20077;-72
2023/05/14 07:48:54;;;;;;;34.03;16.92;;;;;;;14.23;78.46;102188.19;6104772;19;20127;-71
2023/05/14 07:50:58;;;;;;;31.88;15.98;;;;;;;14.14;78.96;102188.53;6106741;19;20047;-71
2023/05/14 07:53:03;;;;;;;36.67;17.55;;;;;;;14.20;78.64;102192.72;6102254;19;20011;-71
2023/05/14 07:55:09;;;;;;;34.13;18.20;;;;;;;13.86;79.79;102185.94;6105820;19;20018;-71
2023/05/14 07:57:14;;;;;;;36.63;16.48;;;;;;;13.90;80.00;102184.94;6105385;19;20418;-71
2023/05/14 07:59:19;;;;;;;36.90;19.63;;;;;;;13.85;80.58;102189.50;6106007;19;20014;-71
2023/05/14 08:01:25;;;;;;;34.85;18.38;;;;;;;14.05;80.77;102194.97;6107317;19;20067;-72
2023/05/14 08:03:30;;;;;;;39.88;18.83;;;;;;;14.47;79.84;102170.59;6095966;19;20488;-71
2023/05/14 08:05:38;;;;;;;40.90;19.48;;;;;;;14.87;78.16;102177.13;6098303;19;20572;-72
2023/05/14 08:07:43;;;;;;;34.92;17.30;;;;;;;15.39;75.75;102190.16;6101398;19;20006;-72
2023/05/14 08:09:48;;;;;;;36.72;18.10;;;;;;;15.82;74.50;102182.31;6104475;19;20026;-73
2023/05/14 08:11:53;;;;;;;32.90;16.80;;;;;;;15.70;73.74;102181.91;6102855;19;20539;-72
2023/05/14 08:13:59;;;;;;;33.80;15.95;;;;;;;16.23;72.00;102180.59;6097799;19;20006;-72
2023/05/14 08:16:04;;;;;;;31.50;15.27;;;;;;;16.24;71.83;102177.88;6100768;19;20074;-72
2023/05/14 08:18:09;;;;;;;31.05;15.55;;;;;;;16.19;70.74;102171.03;6102036;19;20432;-72
2023/05/14 08:20:15;;;;;;;34.25;15.13;;;;;;;16.72;71.28;102169.59;6103581;19;20021;-71
2023/05/14 08:22:23;;;;;;;30.70;15.32;;;;;;;16.74;71.21;102167.75;6100424;19;20010;-74
2023/05/14 08:24:28;;;;;;;32.80;15.55;;;;;;;16.98;69.76;102169.31;6100265;19;20017;-71
2023/05/14 08:26:33;;;;;;;25.45;14.50;;;;;;;16.98;69.22;102168.44;6100064;19;20014;-73
2023/05/14 08:28:38;;;;;;;29.48;15.13;;;;;;;16.14;71.07;102179.19;6099266;19;20420;-74
2023/05/14 08:30:44;;;;;;;30.35;14.55;;;;;;;16.18;71.37;102172.81;6099075;19;20003;-73
2023/05/14 08:32:49;;;;;;;36.85;15.15;;;;;;;16.88;70.46;102165.38;6100698;19;20007;-73
2023/05/14 08:34:56;;;;;;;26.15;13.43;;;;;;;17.23;68.99;102168.16;6106417;19;20108;-73
2023/05/14 08:37:01;;;;;;;24.67;12.40;;;;;;;17.74;66.55;102169.22;6101602;19;20019;-72
2023/05/14 08:39:09;;;;;;;29.65;14.30;;;;;;;17.24;68.06;102168.06;6098524;19;20021;-71
2023/05/14 08:41:17;;;;;;;26.23;13.70;;;;;;;16.85;68.80;102168.13;6101936;19;20007;-73
2023/05/14 08:43:29;;;;;;;25.42;12.95;;;;;;;16.52;69.07;102168.72;6101461;19;20027;-72
2023/05/14 08:45:36;;;;;;;25.13;13.02;;;;;;;16.32;69.68;102168.72;6095489;19;20018;-72
2023/05/14 08:47:41;;;;;;;23.27;13.43;;;;;;;16.92;67.79;102161.63;6098834;19;20013;-72
2023/05/14 08:49:53;;;;;;;25.23;11.68;;;;;;;17.39;67.69;102162.97;6095889;19;20062;-73
2023/05/14 08:51:59;;;;;;;30.20;12.65;;;;;;;18.08;64.35;102156.94;6096757;19;20364;-71
2023/05/14 08:54:05;;;;;;;25.02;12.43;;;;;;;17.76;64.33;102146.09;6096374;19;20074;-71
2023/05/14 08:56:12;;;;;;;25.50;13.80;;;;;;;17.51;63.85;102147.31;6099899;19;20028;-72
2023/05/14 08:58:21;;;;;;;23.25;12.27;;;;;;;17.76;64.24;102146.94;6096731;19;20110;-72
2023/05/14 09:00:26;;;;;;;27.92;12.68;;;;;;;17.13;64.98;102146.47;6100107;19;20003;-72
2023/05/14 09:02:33;;;;;;;28.63;13.38;;;;;;;17.12;65.81;102147.44;6096026;19;20048;-73
2023/05/14 09:04:38;;;;;;;21.70;12.05;;;;;;;17.20;66.80;102149.72;6099446;19;20010;-72
2023/05/14 09:06:45;;;;;;;23.73;11.88;;;;;;;17.52;65.49;102143.72;6101730;19;20552;-72
2023/05/14 09:08:51;;;;;;;28.48;13.82;;;;;;;17.40;65.69;102136.31;6101743;19;20492;-72
2023/05/14 09:10:56;;;;;;;18.48;10.98;;;;;;;18.40;64.68;102140.19;6098932;19;20543;-72
2023/05/14 09:13:03;;;;;;;25.10;11.75;;;;;;;18.04;62.06;102137.63;6095309;19;20013;-72
2023/05/14 09:15:12;;;;;;;26.25;13.10;;;;;;;18.44;63.53;102132.88;6102042;19;20003;-71
2023/05/14 09:17:18;;;;;;;24.60;12.35;;;;;;;19.36;61.34;102132.31;6098078;19;20006;-73
2023/05/14 09:19:23;;;;;;;24.40;12.70;;;;;;;18.74;61.39;102125.03;6094989;19;20011;-74
2023/05/14 09:21:34;;;;;;;22.98;11.65;;;;;;;19.29;60.58;102124.66;6094478;19;20019;-72
2023/05/14 09:23:44;;;;;;;27.13;12.48;;;;;;;18.89;60.50;102122.53;6094078;19;20086;-73
2023/05/14 09:25:50;;;;;;;27.83;12.43;;;;;;;18.39;63.73;102122.47;6090515;19;20002;-72
2023/05/14 09:27:55;;;;;;;24.88;11.35;;;;;;;19.10;62.11;102126.66;6097370;19;20003;-71
2023/05/14 09:30:15;;;;;;;22.63;11.32;;;;;;;18.93;62.59;102118.72;6091933;19;20305;-72
2023/05/14 09:32:21;;;;;;;19.33;11.15;;;;;;;18.53;62.41;102120.88;6095183;19;21636;-72
2023/05/14 09:34:28;;;;;;;26.20;11.85;;;;;;;18.69;61.80;102126.22;6093126;19;20014;-73